メインページ
METAR-TAF:

METAR-TAF

空港 :

ハーツフィールド・ジャクソン・アトランタ国際空港

アトランタ, ジョージア州, アメリカ合衆国

緯度: 33-38-25N, 経度: 084-25-37W, 海抜: 313m

現時点の気象観測

当レポートは1時間7分前の22:52(UTC)に作成
の風 5kt
気温 30°C
湿度 62%
気圧 1016 hPa
視程: 16.1km
高度2500ftの雲はほとんどない
高度20000ftの千切れ雲あり
高度25000ftの千切れ雲あり

METAR: KATL 162252Z 19005KT 10SM FEW025 BKN200 BKN250 30/22 A2999 RMK AO2 SLP145 LTG DSNT NW CB DSNT SW-W & NW T03000222

時間: 19:59 (23:59 UTC)

予報

当レポートは30分前の23:29(UTC)に作成
予報は17日の 00時(UTC)から 18日の 06時(UTC)まで有効
南西の風 5kt
視程: 10km
高度3500ftの雲は散在している
高度15000ftの千切れ雲あり
17日の 00時(UTC)から 17日の 02時(UTC)まで一時的に
変向風 15kt、最大25ktの突風を伴う
視程: 4.8km
高度2500ftの千切れ雲あり, 積乱雲.
激しい雷雨, 雨
17日の 0900時(UTC)から
西/南西の風 4kt
視程: 10km
高度800ftの千切れ雲あり
高度1500ftの千切れ雲あり
17日の 1400時(UTC)から
西/南西の風 7kt
視程: 10km
高度800ftの雲は散在している
高度1500ftの千切れ雲あり
高度3000ftの曇り
17日の 1600時(UTC)から
西の風 8kt
視程: 10km
高度3500ftの千切れ雲あり
近辺でにわか雨
確率 30%
17日の 18時(UTC)から 17日の 24時(UTC)まで
視程: 4.8km
高度2500ftの千切れ雲あり, 積乱雲.
激しい雷雨, 雨, 靄
18日の 0200時(UTC)から
西/北西の風 6kt
視程: 10km
高度4000ftの雲は散在している
高度12000ftの千切れ雲あり

TAF: KATL 162329Z 1700/1806 23005KT P6SM SCT035 BKN150 TEMPO 1700/1702 VRB15G25KT 3SM TSRA BKN025CB FM170900 25004KT P6SM BKN008 BKN015 FM171400 25007KT P6SM SCT008 BKN015 OVC030 FM171600 28008KT P6SM VCSH BKN035 PROB30 1718/1724 3SM TSRA BR BKN025CB FM180200 29006KT P6SM SCT040 BKN120

4,000以上の空港の気象観測と天気予報(METAR報とTAF報)

利用可能な観測所は地図上に黄色い丸と赤い丸で示す。

丸の上にカーソルを重ねると観測所名を参照できる。

次にクリックすると気象観測と天気予報を参照できる。

マップの切り替え:黒色「×」印の緑ボタンをクリックして拡大、「-」印の緑ボタンをクリックして縮小、緑色の三角印をクリックして隣りの地図に切り替え


METAR-TAF: